sensor_id;sensor_type;location;lat;lon;timestamp;pressure;altitude;pressure_sealevel;temperature;humidity
59608;BME280;45426;44.726;10.390;2022-08-03T00:02:22;100595.97;;;24.71;100.00
59608;BME280;45426;44.726;10.390;2022-08-03T00:04:48;100593.81;;;24.59;100.00
59608;BME280;45426;44.726;10.390;2022-08-03T00:07:13;100599.06;;;24.53;100.00
59608;BME280;45426;44.726;10.390;2022-08-03T00:09:38;100587.09;;;24.33;100.00
59608;BME280;45426;44.726;10.390;2022-08-03T00:12:04;100596.03;;;24.20;100.00
59608;BME280;45426;44.726;10.390;2022-08-03T00:14:30;100574.44;;;24.32;100.00
59608;BME280;45426;44.726;10.390;2022-08-03T00:16:55;100578.22;;;24.18;100.00
59608;BME280;45426;44.726;10.390;2022-08-03T00:19:21;100578.78;;;24.56;100.00
59608;BME280;45426;44.726;10.390;2022-08-03T00:21:47;100573.56;;;24.82;100.00
59608;BME280;45426;44.726;10.390;2022-08-03T00:24:12;100574.97;;;25.10;100.00
59608;BME280;45426;44.726;10.390;2022-08-03T00:26:38;100591.16;;;25.72;100.00
59608;BME280;45426;44.726;10.390;2022-08-03T00:29:03;100578.59;;;25.07;100.00
59608;BME280;45426;44.726;10.390;2022-08-03T00:31:28;100578.19;;;25.09;100.00
59608;BME280;45426;44.726;10.390;2022-08-03T00:33:54;100577.66;;;24.74;100.00
59608;BME280;45426;44.726;10.390;2022-08-03T00:36:19;100584.44;;;24.93;100.00
59608;BME280;45426;44.726;10.390;2022-08-03T00:38:45;100587.56;;;24.75;100.00
59608;BME280;45426;44.726;10.390;2022-08-03T00:41:10;100579.63;;;24.53;100.00
59608;BME280;45426;44.726;10.390;2022-08-03T00:43:35;100587.28;;;24.46;100.00
59608;BME280;45426;44.726;10.390;2022-08-03T00:46:01;100592.59;;;24.36;100.00
59608;BME280;45426;44.726;10.390;2022-08-03T00:48:26;100582.25;;;24.37;100.00
59608;BME280;45426;44.726;10.390;2022-08-03T00:50:52;100596.03;;;24.44;100.00
59608;BME280;45426;44.726;10.390;2022-08-03T00:53:18;100587.50;;;24.31;100.00
59608;BME280;45426;44.726;10.390;2022-08-03T00:55:44;100593.88;;;24.32;100.00
59608;BME280;45426;44.726;10.390;2022-08-03T00:58:09;100585.78;;;24.17;100.00
59608;BME280;45426;44.726;10.390;2022-08-03T01:00:37;100589.88;;;24.09;100.00
59608;BME280;45426;44.726;10.390;2022-08-03T01:03:05;100578.59;;;24.20;100.00
59608;BME280;45426;44.726;10.390;2022-08-03T01:14:19;100574.00;;;24.57;100.00
59608;BME280;45426;44.726;10.390;2022-08-03T01:16:55;100575.88;;;24.16;100.00
59608;BME280;45426;44.726;10.390;2022-08-03T01:19:35;100576.63;;;24.20;100.00
59608;BME280;45426;44.726;10.390;2022-08-03T01:27:53;100577.88;;;23.92;100.00
59608;BME280;45426;44.726;10.390;2022-08-03T01:30:24;100578.16;;;24.21;100.00
59608;BME280;45426;44.726;10.390;2022-08-03T01:33:01;100571.03;;;24.44;100.00
59608;BME280;45426;44.726;10.390;2022-08-03T01:35:53;100572.31;;;24.63;100.00
59608;BME280;45426;44.726;10.390;2022-08-03T01:38:26;100575.22;;;25.36;100.00
59608;BME280;45426;44.726;10.390;2022-08-03T01:40:53;100569.63;;;25.56;100.00
59608;BME280;45426;44.726;10.390;2022-08-03T01:43:23;100570.69;;;25.62;100.00
59608;BME280;45426;44.726;10.390;2022-08-03T01:45:52;100578.16;;;25.65;100.00
59608;BME280;45426;44.726;10.390;2022-08-03T01:48:20;100576.94;;;25.50;100.00
59608;BME280;45426;44.726;10.390;2022-08-03T01:50:47;100569.25;;;25.37;100.00
59608;BME280;45426;44.726;10.390;2022-08-03T01:53:17;100564.22;;;25.49;100.00
59608;BME280;45426;44.726;10.390;2022-08-03T01:55:50;100570.03;;;25.38;100.00
59608;BME280;45426;44.726;10.390;2022-08-03T01:58:17;100563.78;;;25.14;100.00
59608;BME280;45426;44.726;10.390;2022-08-03T02:00:45;100566.84;;;24.99;100.00
59608;BME280;45426;44.726;10.390;2022-08-03T02:03:14;100565.56;;;24.84;100.00
59608;BME280;45426;44.726;10.390;2022-08-03T02:05:42;100564.00;;;24.83;100.00
59608;BME280;45426;44.726;10.390;2022-08-03T02:08:11;100572.09;;;24.74;100.00
59608;BME280;45426;44.726;10.390;2022-08-03T02:10:40;100572.88;;;24.74;100.00
59608;BME280;45426;44.726;10.390;2022-08-03T02:13:07;100571.03;;;24.68;100.00
59608;BME280;45426;44.726;10.390;2022-08-03T02:15:35;100576.66;;;24.64;100.00
59608;BME280;45426;44.726;10.390;2022-08-03T02:18:02;100573.41;;;24.69;100.00
59608;BME280;45426;44.726;10.390;2022-08-03T02:20:29;100581.31;;;24.71;100.00
59608;BME280;45426;44.726;10.390;2022-08-03T02:22:57;100576.72;;;24.60;100.00
59608;BME280;45426;44.726;10.390;2022-08-03T02:25:23;100572.63;;;24.45;100.00
59608;BME280;45426;44.726;10.390;2022-08-03T02:27:57;100579.97;;;24.55;100.00
59608;BME280;45426;44.726;10.390;2022-08-03T02:30:30;100580.16;;;24.68;100.00
59608;BME280;45426;44.726;10.390;2022-08-03T02:32:58;100580.94;;;24.69;100.00
59608;BME280;45426;44.726;10.390;2022-08-03T02:35:25;100586.56;;;24.85;100.00
59608;BME280;45426;44.726;10.390;2022-08-03T02:38:01;100585.13;;;24.57;100.00
59608;BME280;45426;44.726;10.390;2022-08-03T02:40:28;100582.50;;;24.70;100.00
59608;BME280;45426;44.726;10.390;2022-08-03T02:42:57;100585.06;;;24.60;100.00
59608;BME280;45426;44.726;10.390;2022-08-03T02:45:24;100581.09;;;24.62;100.00
59608;BME280;45426;44.726;10.390;2022-08-03T02:47:52;100588.06;;;24.70;100.00
59608;BME280;45426;44.726;10.390;2022-08-03T02:50:21;100585.28;;;24.46;100.00
59608;BME280;45426;44.726;10.390;2022-08-03T02:52:50;100591.56;;;24.74;100.00
59608;BME280;45426;44.726;10.390;2022-08-03T02:55:19;100585.28;;;24.70;100.00
59608;BME280;45426;44.726;10.390;2022-08-03T02:57:46;100586.09;;;24.47;100.00
59608;BME280;45426;44.726;10.390;2022-08-03T03:00:13;100591.56;;;24.50;100.00
59608;BME280;45426;44.726;10.390;2022-08-03T03:02:39;100576.53;;;24.48;100.00
59608;BME280;45426;44.726;10.390;2022-08-03T03:05:07;100580.28;;;24.61;100.00
59608;BME280;45426;44.726;10.390;2022-08-03T03:07:35;100582.44;;;24.50;100.00
59608;BME280;45426;44.726;10.390;2022-08-03T03:10:02;100580.53;;;24.47;100.00
59608;BME280;45426;44.726;10.390;2022-08-03T03:12:28;100579.25;;;24.51;100.00
59608;BME280;45426;44.726;10.390;2022-08-03T03:14:54;100579.22;;;24.55;100.00
59608;BME280;45426;44.726;10.390;2022-08-03T03:17:20;100572.56;;;24.49;100.00
59608;BME280;45426;44.726;10.390;2022-08-03T03:19:46;100573.94;;;24.37;100.00
59608;BME280;45426;44.726;10.390;2022-08-03T03:22:14;100572.00;;;24.57;100.00
59608;BME280;45426;44.726;10.390;2022-08-03T03:24:41;100572.81;;;24.58;100.00
59608;BME280;45426;44.726;10.390;2022-08-03T03:27:07;100577.69;;;24.50;100.00
59608;BME280;45426;44.726;10.390;2022-08-03T03:29:33;100573.81;;;24.44;100.00
59608;BME280;45426;44.726;10.390;2022-08-03T03:32:00;100577.53;;;24.37;100.00
59608;BME280;45426;44.726;10.390;2022-08-03T03:34:28;100575.75;;;24.23;100.00
59608;BME280;45426;44.726;10.390;2022-08-03T03:36:53;100581.91;;;24.35;100.00
59608;BME280;45426;44.726;10.390;2022-08-03T03:39:19;100581.44;;;23.62;100.00
59608;BME280;45426;44.726;10.390;2022-08-03T03:41:44;100589.03;;;23.58;100.00
59608;BME280;45426;44.726;10.390;2022-08-03T03:44:10;100590.44;;;23.42;100.00
59608;BME280;45426;44.726;10.390;2022-08-03T03:46:36;100584.13;;;23.08;100.00
59608;BME280;45426;44.726;10.390;2022-08-03T03:49:04;100595.41;;;22.90;100.00
59608;BME280;45426;44.726;10.390;2022-08-03T03:51:29;100592.63;;;22.90;100.00
59608;BME280;45426;44.726;10.390;2022-08-03T03:53:59;100595.13;;;23.15;100.00
59608;BME280;45426;44.726;10.390;2022-08-03T03:56:26;100595.22;;;22.70;100.00
59608;BME280;45426;44.726;10.390;2022-08-03T03:58:52;100594.31;;;23.18;100.00
59608;BME280;45426;44.726;10.390;2022-08-03T04:01:17;100596.78;;;23.70;100.00
59608;BME280;45426;44.726;10.390;2022-08-03T04:03:43;100591.56;;;24.03;100.00
59608;BME280;45426;44.726;10.390;2022-08-03T04:06:09;100604.13;;;24.11;100.00
59608;BME280;45426;44.726;10.390;2022-08-03T04:08:53;100596.28;;;23.79;100.00
59608;BME280;45426;44.726;10.390;2022-08-03T04:11:39;100599.63;;;23.94;100.00
59608;BME280;45426;44.726;10.390;2022-08-03T04:14:10;100604.88;;;22.92;100.00
59608;BME280;45426;44.726;10.390;2022-08-03T04:16:43;100605.59;;;22.09;100.00
59608;BME280;45426;44.726;10.390;2022-08-03T04:19:20;100601.44;;;23.15;100.00
59608;BME280;45426;44.726;10.390;2022-08-03T04:21:51;100599.44;;;23.50;100.00
59608;BME280;45426;44.726;10.390;2022-08-03T04:24:17;100597.47;;;23.47;100.00
59608;BME280;45426;44.726;10.390;2022-08-03T04:26:45;100602.09;;;23.26;100.00
59608;BME280;45426;44.726;10.390;2022-08-03T04:29:14;100611.94;;;22.59;100.00
59608;BME280;45426;44.726;10.390;2022-08-03T04:31:40;100613.41;;;22.25;100.00
59608;BME280;45426;44.726;10.390;2022-08-03T04:34:06;100607.97;;;22.11;100.00
59608;BME280;45426;44.726;10.390;2022-08-03T04:36:37;100611.00;;;22.27;100.00
59608;BME280;45426;44.726;10.390;2022-08-03T04:39:07;100607.91;;;22.18;100.00
59608;BME280;45426;44.726;10.390;2022-08-03T04:41:35;100614.19;;;22.71;100.00
59608;BME280;45426;44.726;10.390;2022-08-03T04:44:01;100608.50;;;22.44;100.00
59608;BME280;45426;44.726;10.390;2022-08-03T04:46:35;100604.50;;;22.52;100.00
59608;BME280;45426;44.726;10.390;2022-08-03T04:49:04;100611.06;;;22.69;100.00
59608;BME280;45426;44.726;10.390;2022-08-03T04:51:30;100611.84;;;22.70;100.00
59608;BME280;45426;44.726;10.390;2022-08-03T04:53:56;100613.16;;;22.54;100.00
59608;BME280;45426;44.726;10.390;2022-08-03T04:56:21;100612.63;;;22.66;100.00
59608;BME280;45426;44.726;10.390;2022-08-03T04:58:47;100619.91;;;23.29;100.00
59608;BME280;45426;44.726;10.390;2022-08-03T05:01:12;100617.50;;;23.62;100.00
59608;BME280;45426;44.726;10.390;2022-08-03T05:03:38;100616.06;;;24.08;100.00
59608;BME280;45426;44.726;10.390;2022-08-03T05:06:04;100621.63;;;24.32;100.00
59608;BME280;45426;44.726;10.390;2022-08-03T05:08:30;100629.00;;;24.42;100.00
59608;BME280;45426;44.726;10.390;2022-08-03T05:10:55;100618.75;;;24.63;100.00
59608;BME280;45426;44.726;10.390;2022-08-03T05:13:21;100619.63;;;24.79;100.00
59608;BME280;45426;44.726;10.390;2022-08-03T05:15:46;100621.28;;;24.77;100.00
59608;BME280;45426;44.726;10.390;2022-08-03T05:18:12;100619.56;;;24.83;100.00
59608;BME280;45426;44.726;10.390;2022-08-03T05:20:37;100626.69;;;24.84;100.00
59608;BME280;45426;44.726;10.390;2022-08-03T05:23:02;100636.63;;;24.62;100.00
59608;BME280;45426;44.726;10.390;2022-08-03T05:25:28;100635.63;;;24.25;100.00
59608;BME280;45426;44.726;10.390;2022-08-03T05:27:54;100635.06;;;24.60;100.00
59608;BME280;45426;44.726;10.390;2022-08-03T05:30:19;100639.56;;;24.51;100.00
59608;BME280;45426;44.726;10.390;2022-08-03T05:32:45;100636.88;;;25.34;100.00
59608;BME280;45426;44.726;10.390;2022-08-03T05:35:10;100631.69;;;25.53;100.00
59608;BME280;45426;44.726;10.390;2022-08-03T05:37:36;100644.78;;;25.72;100.00
59608;BME280;45426;44.726;10.390;2022-08-03T05:40:02;100645.25;;;25.51;100.00
59608;BME280;45426;44.726;10.390;2022-08-03T05:42:28;100646.56;;;24.83;100.00
59608;BME280;45426;44.726;10.390;2022-08-03T05:44:53;100641.00;;;25.26;100.00
59608;BME280;45426;44.726;10.390;2022-08-03T05:47:19;100639.06;;;25.80;100.00
59608;BME280;45426;44.726;10.390;2022-08-03T05:49:44;100636.69;;;25.42;100.00
59608;BME280;45426;44.726;10.390;2022-08-03T05:52:09;100637.78;;;24.64;100.00
59608;BME280;45426;44.726;10.390;2022-08-03T05:54:35;100643.50;;;24.53;100.00
59608;BME280;45426;44.726;10.390;2022-08-03T05:57:00;100644.47;;;24.67;100.00
59608;BME280;45426;44.726;10.390;2022-08-03T05:59:26;100643.94;;;25.15;100.00
59608;BME280;45426;44.726;10.390;2022-08-03T06:01:51;100637.59;;;25.15;100.00
59608;BME280;45426;44.726;10.390;2022-08-03T06:04:17;100638.25;;;25.03;100.00
59608;BME280;45426;44.726;10.390;2022-08-03T06:06:42;100641.75;;;25.27;100.00
59608;BME280;45426;44.726;10.390;2022-08-03T06:09:08;100646.13;;;25.48;100.00
59608;BME280;45426;44.726;10.390;2022-08-03T06:11:36;100648.59;;;25.99;100.00
59608;BME280;45426;44.726;10.390;2022-08-03T06:14:01;100646.44;;;26.06;100.00
59608;BME280;45426;44.726;10.390;2022-08-03T06:16:27;100646.16;;;26.50;100.00
59608;BME280;45426;44.726;10.390;2022-08-03T06:18:52;100650.69;;;26.77;100.00
59608;BME280;45426;44.726;10.390;2022-08-03T06:21:18;100649.84;;;26.92;100.00
59608;BME280;45426;44.726;10.390;2022-08-03T06:23:44;100654.88;;;27.69;100.00
59608;BME280;45426;44.726;10.390;2022-08-03T06:26:10;100658.88;;;27.81;100.00
59608;BME280;45426;44.726;10.390;2022-08-03T06:28:35;100661.94;;;27.99;100.00
59608;BME280;45426;44.726;10.390;2022-08-03T06:31:02;100669.22;;;27.97;100.00
59608;BME280;45426;44.726;10.390;2022-08-03T06:33:28;100663.16;;;28.24;100.00
59608;BME280;45426;44.726;10.390;2022-08-03T06:35:53;100663.56;;;28.35;100.00
59608;BME280;45426;44.726;10.390;2022-08-03T06:38:19;100670.84;;;28.45;100.00
59608;BME280;45426;44.726;10.390;2022-08-03T06:40:44;100674.41;;;28.94;100.00
59608;BME280;45426;44.726;10.390;2022-08-03T06:43:10;100669.09;;;28.13;100.00
59608;BME280;45426;44.726;10.390;2022-08-03T06:45:36;100671.38;;;29.45;100.00
59608;BME280;45426;44.726;10.390;2022-08-03T06:48:06;100670.34;;;30.24;100.00
59608;BME280;45426;44.726;10.390;2022-08-03T06:50:33;100673.84;;;31.48;100.00
59608;BME280;45426;44.726;10.390;2022-08-03T06:52:59;100673.03;;;34.71;100.00
59608;BME280;45426;44.726;10.390;2022-08-03T06:55:25;100667.03;;;37.37;100.00
59608;BME280;45426;44.726;10.390;2022-08-03T06:57:51;100662.94;;;40.46;100.00
59608;BME280;45426;44.726;10.390;2022-08-03T07:00:17;100669.34;;;42.14;100.00
59608;BME280;45426;44.726;10.390;2022-08-03T07:02:43;100667.31;;;43.80;100.00
59608;BME280;45426;44.726;10.390;2022-08-03T07:05:09;100664.53;;;44.25;100.00
59608;BME280;45426;44.726;10.390;2022-08-03T07:07:35;100671.09;;;45.00;100.00
59608;BME280;45426;44.726;10.390;2022-08-03T07:10:01;100668.69;;;43.58;100.00
59608;BME280;45426;44.726;10.390;2022-08-03T07:12:27;100679.34;;;45.19;100.00
59608;BME280;45426;44.726;10.390;2022-08-03T07:14:54;100675.53;;;45.24;100.00
59608;BME280;45426;44.726;10.390;2022-08-03T07:17:20;100668.72;;;46.70;100.00
59608;BME280;45426;44.726;10.390;2022-08-03T07:19:45;100673.22;;;45.84;100.00
59608;BME280;45426;44.726;10.390;2022-08-03T07:22:10;100668.59;;;46.93;100.00
59608;BME280;45426;44.726;10.390;2022-08-03T07:24:36;100687.28;;;41.23;100.00
59608;BME280;45426;44.726;10.390;2022-08-03T07:27:02;100672.75;;;46.26;100.00
59608;BME280;45426;44.726;10.390;2022-08-03T07:29:27;100676.44;;;46.12;100.00
59608;BME280;45426;44.726;10.390;2022-08-03T07:31:53;100672.41;;;44.32;100.00
59608;BME280;45426;44.726;10.390;2022-08-03T07:34:18;100685.44;;;46.00;100.00
59608;BME280;45426;44.726;10.390;2022-08-03T07:36:44;100682.81;;;45.71;100.00
59608;BME280;45426;44.726;10.390;2022-08-03T07:39:09;100672.72;;;43.92;100.00
59608;BME280;45426;44.726;10.390;2022-08-03T07:41:35;100672.31;;;46.38;100.00
59608;BME280;45426;44.726;10.390;2022-08-03T07:44:01;100679.22;;;44.57;100.00
59608;BME280;45426;44.726;10.390;2022-08-03T07:46:26;100673.47;;;45.48;100.00
59608;BME280;45426;44.726;10.390;2022-08-03T07:48:52;100678.19;;;44.91;100.00
59608;BME280;45426;44.726;10.390;2022-08-03T07:51:17;100673.94;;;44.41;100.00
59608;BME280;45426;44.726;10.390;2022-08-03T07:53:43;100679.97;;;44.22;100.00
59608;BME280;45426;44.726;10.390;2022-08-03T07:56:08;100673.31;;;44.27;100.00
59608;BME280;45426;44.726;10.390;2022-08-03T07:58:34;100678.91;;;38.67;100.00
59608;BME280;45426;44.726;10.390;2022-08-03T08:01:00;100671.94;;;42.99;100.00
59608;BME280;45426;44.726;10.390;2022-08-03T08:03:25;100681.72;;;38.73;100.00
59608;BME280;45426;44.726;10.390;2022-08-03T08:05:51;100675.97;;;36.96;100.00
59608;BME280;45426;44.726;10.390;2022-08-03T08:08:18;100670.28;;;36.96;100.00
59608;BME280;45426;44.726;10.390;2022-08-03T08:10:44;100677.13;;;35.16;100.00
59608;BME280;45426;44.726;10.390;2022-08-03T08:13:09;100673.38;;;35.89;100.00
59608;BME280;45426;44.726;10.390;2022-08-03T08:15:35;100678.16;;;36.58;100.00
59608;BME280;45426;44.726;10.390;2022-08-03T08:18:00;100679.50;;;35.82;100.00
59608;BME280;45426;44.726;10.390;2022-08-03T08:20:29;100668.50;;;36.27;100.00
59608;BME280;45426;44.726;10.390;2022-08-03T08:22:56;100668.47;;;35.26;100.00
59608;BME280;45426;44.726;10.390;2022-08-03T08:25:22;100669.28;;;34.59;100.00
59608;BME280;45426;44.726;10.390;2022-08-03T08:27:48;100675.97;;;34.61;100.00
59608;BME280;45426;44.726;10.390;2022-08-03T08:30:15;100670.25;;;32.57;100.00
59608;BME280;45426;44.726;10.390;2022-08-03T08:32:42;100671.28;;;33.37;100.00
59608;BME280;45426;44.726;10.390;2022-08-03T08:35:08;100666.50;;;35.06;100.00
59608;BME280;45426;44.726;10.390;2022-08-03T08:37:34;100667.09;;;34.28;100.00
59608;BME280;45426;44.726;10.390;2022-08-03T08:40:00;100667.66;;;34.32;100.00
59608;BME280;45426;44.726;10.390;2022-08-03T08:42:26;100667.75;;;33.87;100.00
59608;BME280;45426;44.726;10.390;2022-08-03T08:44:51;100674.00;;;33.76;100.00
59608;BME280;45426;44.726;10.390;2022-08-03T08:47:29;100669.47;;;34.96;100.00
59608;BME280;45426;44.726;10.390;2022-08-03T08:49:57;100670.13;;;34.65;100.00
59608;BME280;45426;44.726;10.390;2022-08-03T08:52:28;100669.13;;;33.92;100.00
59608;BME280;45426;44.726;10.390;2022-08-03T08:55:04;100671.31;;;33.67;100.00
59608;BME280;45426;44.726;10.390;2022-08-03T08:57:33;100665.84;;;34.49;100.00
59608;BME280;45426;44.726;10.390;2022-08-03T09:00:00;100668.66;;;33.49;100.00
59608;BME280;45426;44.726;10.390;2022-08-03T09:02:28;100671.03;;;34.56;100.00
59608;BME280;45426;44.726;10.390;2022-08-03T09:04:54;100674.72;;;33.02;100.00
59608;BME280;45426;44.726;10.390;2022-08-03T09:07:21;100674.41;;;33.24;100.00
59608;BME280;45426;44.726;10.390;2022-08-03T09:09:47;100666.16;;;32.34;100.00
59608;BME280;45426;44.726;10.390;2022-08-03T09:12:12;100662.34;;;32.46;100.00
59608;BME280;45426;44.726;10.390;2022-08-03T09:14:38;100662.06;;;34.17;100.00
59608;BME280;45426;44.726;10.390;2022-08-03T09:17:03;100664.38;;;32.21;100.00
59608;BME280;45426;44.726;10.390;2022-08-03T09:19:31;100667.28;;;33.59;100.00
59608;BME280;45426;44.726;10.390;2022-08-03T09:22:16;100655.84;;;34.13;100.00
59608;BME280;45426;44.726;10.390;2022-08-03T09:25:00;100658.91;;;34.30;100.00
59608;BME280;45426;44.726;10.390;2022-08-03T09:27:27;100657.31;;;33.73;100.00
59608;BME280;45426;44.726;10.390;2022-08-03T09:29:53;100653.91;;;32.70;100.00
59608;BME280;45426;44.726;10.390;2022-08-03T09:32:20;100651.88;;;32.71;100.00
59608;BME280;45426;44.726;10.390;2022-08-03T09:34:51;100654.22;;;34.06;100.00
59608;BME280;45426;44.726;10.390;2022-08-03T09:37:18;100648.41;;;34.71;100.00
59608;BME280;45426;44.726;10.390;2022-08-03T09:39:45;100641.16;;;34.44;100.00
59608;BME280;45426;44.726;10.390;2022-08-03T09:42:18;100648.03;;;34.84;100.00
59608;BME280;45426;44.726;10.390;2022-08-03T09:44:46;100643.56;;;34.72;100.00
59608;BME280;45426;44.726;10.390;2022-08-03T09:47:29;100644.09;;;34.76;100.00
59608;BME280;45426;44.726;10.390;2022-08-03T09:50:06;100647.56;;;33.59;100.00
59608;BME280;45426;44.726;10.390;2022-08-03T09:52:36;100650.03;;;34.01;100.00
59608;BME280;45426;44.726;10.390;2022-08-03T09:55:12;100639.66;;;34.28;100.00
59608;BME280;45426;44.726;10.390;2022-08-03T09:57:39;100638.19;;;34.33;100.00
59608;BME280;45426;44.726;10.390;2022-08-03T10:02:38;100638.31;;;34.65;100.00
59608;BME280;45426;44.726;10.390;2022-08-03T10:05:05;100635.94;;;33.66;100.00
59608;BME280;45426;44.726;10.390;2022-08-03T10:07:43;100632.25;;;33.45;100.00
59608;BME280;45426;44.726;10.390;2022-08-03T10:10:09;100629.63;;;34.89;100.00
59608;BME280;45426;44.726;10.390;2022-08-03T10:12:35;100628.94;;;34.99;100.00
59608;BME280;45426;44.726;10.390;2022-08-03T10:15:01;100627.66;;;34.54;100.00
59608;BME280;45426;44.726;10.390;2022-08-03T10:17:27;100623.75;;;34.46;100.00
59608;BME280;45426;44.726;10.390;2022-08-03T10:19:52;100622.75;;;34.95;100.00
59608;BME280;45426;44.726;10.390;2022-08-03T10:22:21;100622.31;;;35.03;100.00
59608;BME280;45426;44.726;10.390;2022-08-03T10:24:59;100621.22;;;33.92;100.00
59608;BME280;45426;44.726;10.390;2022-08-03T10:27:26;100623.38;;;34.58;100.00
59608;BME280;45426;44.726;10.390;2022-08-03T10:29:59;100610.97;;;34.30;100.00
59608;BME280;45426;44.726;10.390;2022-08-03T10:32:29;100619.44;;;33.94;100.00
59608;BME280;45426;44.726;10.390;2022-08-03T10:35:06;100622.09;;;34.80;100.00
59608;BME280;45426;44.726;10.390;2022-08-03T10:37:39;100617.13;;;34.13;100.00
59608;BME280;45426;44.726;10.390;2022-08-03T10:40:07;100612.97;;;34.23;100.00
59608;BME280;45426;44.726;10.390;2022-08-03T10:42:34;100614.13;;;34.37;100.00
59608;BME280;45426;44.726;10.390;2022-08-03T10:45:06;100607.78;;;33.66;100.00
59608;BME280;45426;44.726;10.390;2022-08-03T10:47:34;100602.06;;;33.96;100.00
59608;BME280;45426;44.726;10.390;2022-08-03T10:50:00;100599.19;;;33.75;100.00
59608;BME280;45426;44.726;10.390;2022-08-03T10:52:26;100596.88;;;33.74;100.00
59608;BME280;45426;44.726;10.390;2022-08-03T10:54:52;100605.00;;;33.87;100.00
59608;BME280;45426;44.726;10.390;2022-08-03T10:57:50;100599.84;;;34.88;100.00
59608;BME280;45426;44.726;10.390;2022-08-03T11:00:23;100594.59;;;34.13;100.00
59608;BME280;45426;44.726;10.390;2022-08-03T11:03:11;100602.09;;;35.36;100.00
59608;BME280;45426;44.726;10.390;2022-08-03T11:05:46;100588.53;;;33.64;100.00
59608;BME280;45426;44.726;10.390;2022-08-03T11:08:16;100579.25;;;33.43;100.00
59608;BME280;45426;44.726;10.390;2022-08-03T11:10:42;100582.22;;;34.26;100.00
59608;BME280;45426;44.726;10.390;2022-08-03T11:13:08;100582.47;;;35.21;100.00
59608;BME280;45426;44.726;10.390;2022-08-03T11:15:35;100573.69;;;35.51;100.00
59608;BME280;45426;44.726;10.390;2022-08-03T11:18:11;100577.28;;;35.51;100.00
59608;BME280;45426;44.726;10.390;2022-08-03T11:20:58;100574.97;;;35.50;100.00
59608;BME280;45426;44.726;10.390;2022-08-03T11:26:19;100573.13;;;34.16;100.00
59608;BME280;45426;44.726;10.390;2022-08-03T11:28:47;100570.94;;;35.25;100.00
59608;BME280;45426;44.726;10.390;2022-08-03T11:34:06;100579.22;;;35.34;100.00
59608;BME280;45426;44.726;10.390;2022-08-03T11:39:48;100564.31;;;34.49;100.00
59608;BME280;45426;44.726;10.390;2022-08-03T11:44:56;100555.88;;;35.71;100.00
59608;BME280;45426;44.726;10.390;2022-08-03T11:47:24;100561.88;;;35.15;100.00
59608;BME280;45426;44.726;10.390;2022-08-03T11:49:53;100560.66;;;34.95;100.00
59608;BME280;45426;44.726;10.390;2022-08-03T11:52:20;100553.03;;;35.02;100.00
59608;BME280;45426;44.726;10.390;2022-08-03T11:54:49;100550.56;;;34.83;100.00
59608;BME280;45426;44.726;10.390;2022-08-03T11:57:30;100548.19;;;34.76;100.00
59608;BME280;45426;44.726;10.390;2022-08-03T11:59:56;100550.00;;;34.32;100.00
59608;BME280;45426;44.726;10.390;2022-08-03T12:02:22;100539.84;;;34.40;100.00
59608;BME280;45426;44.726;10.390;2022-08-03T12:04:52;100539.44;;;34.74;100.00
59608;BME280;45426;44.726;10.390;2022-08-03T12:07:18;100534.81;;;35.72;100.00
59608;BME280;45426;44.726;10.390;2022-08-03T12:12:32;100537.31;;;34.95;100.00
59608;BME280;45426;44.726;10.390;2022-08-03T12:14:57;100535.41;;;34.34;100.00
59608;BME280;45426;44.726;10.390;2022-08-03T12:17:23;100531.06;;;35.17;100.00
59608;BME280;45426;44.726;10.390;2022-08-03T12:19:48;100537.44;;;34.80;100.00
59608;BME280;45426;44.726;10.390;2022-08-03T12:22:14;100531.13;;;34.65;100.00
59608;BME280;45426;44.726;10.390;2022-08-03T12:24:44;100525.81;;;35.73;100.00
59608;BME280;45426;44.726;10.390;2022-08-03T12:27:09;100531.56;;;34.57;100.00
59608;BME280;45426;44.726;10.390;2022-08-03T12:29:35;100528.94;;;34.54;100.00
59608;BME280;45426;44.726;10.390;2022-08-03T12:32:00;100525.69;;;34.14;100.00
59608;BME280;45426;44.726;10.390;2022-08-03T12:34:45;100519.03;;;35.54;100.00
59608;BME280;45426;44.726;10.390;2022-08-03T12:37:11;100527.94;;;35.09;100.00
59608;BME280;45426;44.726;10.390;2022-08-03T12:39:37;100521.91;;;35.22;100.00
59608;BME280;45426;44.726;10.390;2022-08-03T12:42:02;100512.81;;;35.93;100.00
59608;BME280;45426;44.726;10.390;2022-08-03T12:44:34;100526.06;;;35.00;100.00
59608;BME280;45426;44.726;10.390;2022-08-03T12:47:00;100519.22;;;35.07;100.00
59608;BME280;45426;44.726;10.390;2022-08-03T12:49:26;100514.38;;;35.51;100.00
59608;BME280;45426;44.726;10.390;2022-08-03T12:54:21;100511.13;;;35.64;100.00
59608;BME280;45426;44.726;10.390;2022-08-03T12:57:16;100506.94;;;36.02;100.00
59608;BME280;45426;44.726;10.390;2022-08-03T12:59:43;100516.50;;;36.16;100.00
59608;BME280;45426;44.726;10.390;2022-08-03T13:02:20;100505.94;;;36.17;100.00
59608;BME280;45426;44.726;10.390;2022-08-03T13:04:47;100510.38;;;36.18;100.00
59608;BME280;45426;44.726;10.390;2022-08-03T13:07:13;100505.44;;;36.12;100.00
59608;BME280;45426;44.726;10.390;2022-08-03T13:09:50;100511.94;;;35.70;100.00